Aérodrome :
LOGIN :

S'inscrire | Disclaimer

   EN    FR    IT 

 










Légende :    VFR   VFR Marginal   IFR   IFR Intensif   IFR Très Intensif
Visi : 
Plafond : 
>= 8 km
>= 3000ft
5 à 8 km
1000 à 3000 ft
1500m à 5 km
500 à 1000 ft
800 à 1500m
200 à 500 ft
< 800m
< 200 ft
Symboles :   Orages  Brouillard  Fortes neiges  Fortes précipitations  Vent > 20 kt
SIGMETs :   Divers  Orages  Givrage  Turbulence  Onde Orograph.  Cendres Volcan.







- Altitude de l'aérodrome : 29 ft
- Code IATA : SVG


ENZV - Sola

DERNIER METAR :
  • 211750Z 29043G55KT 8000 SHRA SCT006 SCT012CB BKN018 10/07 Q0982 TEMPO 4000 RADZ BKN008

METARs EXPIRÉS :
  • 211720Z 30045G56KT 5000 -RA FEW005 SCT010 BKN012CB 10/09 Q0979 TEMPO 4000 RADZ BKN008
  • 211650Z 30041G56KT 9000 -RA FEW005 SCT009 BKN012CB 11/10 Q0977 TEMPO 4000 SHRA
  • 211620Z 29021G32KT 9999 SHRA FEW006 BKN012CB 12/10 Q0975 TEMPO 32035G45KT 4000 SHRA
  • 211550Z 27021KT 9999 -SHRA SCT009 BKN014 12/10 Q0973 TEMPO SHRA SCT006 BKN012CB BECMG 32030G40KT
  • 211520Z 24020G30KT 9999 VCSH FEW009 SCT013 BKN055 14/11 Q0971 TEMPO SHRA SCT006 BKN012CB BECMG 32030G40KT

TAF TAF ENZV
Valide du 21 à 18h jusqu'au 22 à 18h UTC


2118/2218 32035G45KT 9000 -RA SCT012 BKN020
TEMPO 2118/2121 32045G58KT 4000 RADZ BKN008
TEMPO 2121/2218 SHRA BKN015CB
BECMG 2203/2206 28025G35KT
Pas de NOTAMs connus pour ce terrain.
4 SIGMETs publiés pour la FIR Norway (ENOR) :
 
Turbulence forte
ENSV SIGMET B04 VALID 211740/212100 ENVV
ENOR NORWAY FIR SEV TURB FCST WI N6000 E00400 - N6025 E00600 - N6000 E00730 - N5750 E00730 - N5830 E00500 - N6000 E00400 SFC/FL060 MOV E 25KT NC=
Turbulence forte
ENSV SIGMET B03 VALID 211500/211900 ENVV
ENOR NORWAY FIR SEV TURB FCST WI N5750 E00730 - N5810 E00600 - N5945 E00600 - N5930 E00730 - N5750 E00730 SFC/FL060 STNR NC=
Turbulence forte
ENOS SIGMET A04 VALID 211800/212200 ENMI
ENOR NORWAY FIR SEV TURB FCST WI N5850 E00930 - N5759 E00730 - N6010 E00730 - N6010 E00930 - N5850 E00930 SFC/FL060 STNR NC=
Turbulence forte
ENOS SIGMET A03 VALID 211800/212200 ENMI
ENOR NORWAY FIR SEV TURB FCST WI N5850 E00930 - N6020 E00930 - N6025 E01250 - N5850 E01145 - N5850 E00930 SFC/4000FT STNR WKN=



MET'MAP, la Météo Aéronautique d'un coup d'oeil ! - Copyright ORBIFLY Décembre 2007 - Disclaimer

ORBIFLY MET'MAP TEAM :

Programmation & Développement : Alexandra Zaïnal
Conception & Développement : Baudouin d'Aumeries
Co-Programmation & Développement : Marc-Olivier Méhu
Soutien technique & logistique : Manuel Goepfert

Contact : metmap@orbifly.com




SOURCES & CREDITS :

   NOAA